createdAt,value
2019-02-12T00:02:16.879Z,3.50
2019-02-12T00:04:38.304Z,3.50
2019-02-12T00:06:59.855Z,3.40
2019-02-12T00:09:21.191Z,3.40
2019-02-12T00:11:42.387Z,3.40
2019-02-12T00:14:03.621Z,3.30
2019-02-12T00:16:25.070Z,3.30
2019-02-12T00:18:46.281Z,3.40
2019-02-12T00:21:09.195Z,3.30
2019-02-12T00:23:30.590Z,3.30
2019-02-12T00:25:51.792Z,3.20
2019-02-12T00:28:13.366Z,3.20
2019-02-12T00:30:34.562Z,3.20
2019-02-12T00:32:55.751Z,3.20
2019-02-12T00:35:16.948Z,3.10
2019-02-12T00:37:38.149Z,3.10
2019-02-12T00:39:59.355Z,3.10
2019-02-12T00:42:20.553Z,3.20
2019-02-12T00:44:41.763Z,3.20
2019-02-12T00:47:04.065Z,3.10
2019-02-12T00:49:25.388Z,3.10
2019-02-12T00:51:46.615Z,3.10
2019-02-12T00:54:07.909Z,3.10
2019-02-12T00:56:29.102Z,3.10
2019-02-12T00:58:50.319Z,3.10
2019-02-12T01:01:12.534Z,3.10
2019-02-12T01:03:33.742Z,3.10
2019-02-12T01:05:54.962Z,3.10
2019-02-12T01:08:16.157Z,3.10
2019-02-12T01:10:37.362Z,3.00
2019-02-12T01:12:58.549Z,3.00
2019-02-12T01:15:19.838Z,3.00
2019-02-12T01:17:41.133Z,2.90
2019-02-12T01:20:04.745Z,2.90
2019-02-12T01:22:25.946Z,2.90
2019-02-12T01:24:47.145Z,2.90
2019-02-12T01:27:08.522Z,2.90
2019-02-12T01:29:29.738Z,3.00
2019-02-12T01:31:50.925Z,2.90
2019-02-12T01:34:12.131Z,2.90
2019-02-12T01:36:33.320Z,2.90
2019-02-12T01:38:54.515Z,2.90
2019-02-12T01:41:15.733Z,2.90
2019-02-12T01:43:36.925Z,2.90
2019-02-12T01:45:58.170Z,2.80
2019-02-12T01:48:20.662Z,2.90
2019-02-12T01:50:41.980Z,2.80
2019-02-12T01:53:03.175Z,2.80
2019-02-12T01:55:24.425Z,2.80
2019-02-12T01:57:45.783Z,2.80
2019-02-12T02:00:10.087Z,2.80
2019-02-12T02:02:31.282Z,2.80
2019-02-12T02:04:52.513Z,2.80
2019-02-12T02:07:13.713Z,2.80
2019-02-12T02:09:34.921Z,2.90
2019-02-12T02:11:56.226Z,3.00
2019-02-12T02:14:17.522Z,3.00
2019-02-12T02:16:38.721Z,3.00
2019-02-12T02:18:59.935Z,3.10
2019-02-12T02:21:21.191Z,3.10
2019-02-12T02:23:42.485Z,3.00
2019-02-12T02:26:03.693Z,2.90
2019-02-12T02:28:24.893Z,2.80
2019-02-12T02:30:46.425Z,2.90
2019-02-12T02:33:07.619Z,2.80
2019-02-12T02:35:28.822Z,2.90
2019-02-12T02:37:50.061Z,2.80
2019-02-12T02:40:11.373Z,2.80
2019-02-12T02:42:32.556Z,2.70
2019-02-12T02:44:54.882Z,2.70
2019-02-12T02:47:16.121Z,2.70
2019-02-12T02:49:37.378Z,2.70
2019-02-12T02:51:58.672Z,2.60
2019-02-12T02:54:19.895Z,2.70
2019-02-12T02:56:41.101Z,2.70
2019-02-12T02:59:02.291Z,2.70
2019-02-12T03:01:24.711Z,2.70
2019-02-12T03:03:45.898Z,2.80
2019-02-12T03:06:07.214Z,2.80
2019-02-12T03:08:28.410Z,2.80
2019-02-12T03:10:49.620Z,2.80
2019-02-12T03:13:10.814Z,2.80
2019-02-12T03:15:32.039Z,2.80
2019-02-12T03:17:53.225Z,2.80
2019-02-12T03:20:14.434Z,2.80
2019-02-12T03:22:35.698Z,2.80
2019-02-12T03:24:56.902Z,2.80
2019-02-12T03:27:18.100Z,2.80
2019-02-12T03:29:39.320Z,2.70
2019-02-12T03:32:00.531Z,2.70
2019-02-12T03:34:21.711Z,2.60
2019-02-12T03:36:42.914Z,2.60
2019-02-12T03:39:04.810Z,2.50
2019-02-12T03:41:26.329Z,2.50
2019-02-12T03:43:47.515Z,2.50
2019-02-12T03:46:08.729Z,2.50
2019-02-12T03:48:29.917Z,2.50
2019-02-12T03:50:51.133Z,2.50
2019-02-12T03:53:12.349Z,2.40
2019-02-12T03:55:33.640Z,2.40
2019-02-12T03:57:55.032Z,2.40
2019-02-12T04:00:16.320Z,2.50
2019-02-12T04:02:41.330Z,2.40
2019-02-12T04:05:04.641Z,2.50
2019-02-12T04:07:25.849Z,2.40
2019-02-12T04:09:48.334Z,2.40
2019-02-12T04:12:09.538Z,2.50
2019-02-12T04:14:30.730Z,2.50
2019-02-12T04:16:51.956Z,2.50
2019-02-12T04:19:13.165Z,2.40
2019-02-12T04:21:34.465Z,2.40
2019-02-12T04:23:56.846Z,2.40
2019-02-12T04:26:18.186Z,2.40
2019-02-12T04:28:39.387Z,2.40
2019-02-12T04:31:00.598Z,2.30
2019-02-12T04:33:21.792Z,2.30
2019-02-12T04:38:01.328Z,2.30
2019-02-12T04:40:22.526Z,2.30
2019-02-12T04:42:43.743Z,2.40
2019-02-12T04:45:08.170Z,2.30
2019-02-12T04:47:29.394Z,2.30
2019-02-12T04:49:50.569Z,2.30
2019-02-12T04:52:11.816Z,2.30
2019-02-12T04:54:33.078Z,2.30
2019-02-12T04:56:54.286Z,2.30
2019-02-12T04:59:15.617Z,2.30
2019-02-12T05:01:36.809Z,2.30
2019-02-12T05:03:58.038Z,2.30
2019-02-12T05:06:19.242Z,2.30
2019-02-12T05:09:04.160Z,2.30
2019-02-12T05:11:25.343Z,2.30
2019-02-12T05:13:46.878Z,2.30
2019-02-12T05:16:08.081Z,2.30
2019-02-12T05:18:29.284Z,2.30
2019-02-12T05:20:50.493Z,2.20
2019-02-12T05:23:11.795Z,2.30
2019-02-12T05:25:32.994Z,2.30
2019-02-12T05:27:54.297Z,2.40
2019-02-12T05:30:15.730Z,2.30
2019-02-12T05:32:36.926Z,2.30
2019-02-12T05:34:58.113Z,2.30
2019-02-12T05:37:19.310Z,2.40
2019-02-12T05:39:40.587Z,2.40
2019-02-12T05:42:01.778Z,2.40
2019-02-12T05:44:22.977Z,2.40
2019-02-12T05:46:45.198Z,2.40
2019-02-12T05:49:06.405Z,2.50
2019-02-12T05:51:27.606Z,2.40
2019-02-12T05:53:48.821Z,2.40
2019-02-12T05:56:10.007Z,2.40
2019-02-12T05:58:31.242Z,2.40
2019-02-12T06:00:52.433Z,2.40
2019-02-12T06:03:13.646Z,2.50
2019-02-12T06:05:34.845Z,2.40
2019-02-12T06:07:56.349Z,2.40
2019-02-12T06:10:17.566Z,2.40
2019-02-12T06:12:38.774Z,2.40
2019-02-12T06:14:59.968Z,2.40
2019-02-12T06:17:21.383Z,2.40
2019-02-12T06:19:42.581Z,2.30
2019-02-12T06:22:03.765Z,2.40
2019-02-12T06:24:24.971Z,2.40
2019-02-12T06:26:46.170Z,2.40
2019-02-12T06:29:07.681Z,2.50
2019-02-12T06:31:28.889Z,2.50
2019-02-12T06:33:50.200Z,2.40
2019-02-12T06:36:11.396Z,2.30
2019-02-12T06:38:32.615Z,2.40
2019-02-12T06:40:53.818Z,2.30
2019-02-12T06:43:15.027Z,2.30
2019-02-12T06:45:37.441Z,2.40
2019-02-12T06:47:58.678Z,2.40
2019-02-12T06:50:19.870Z,2.40
2019-02-12T06:52:41.116Z,2.40
2019-02-12T06:55:02.436Z,2.50
2019-02-12T06:57:23.728Z,2.50
2019-02-12T06:59:45.049Z,2.40
2019-02-12T07:02:43.703Z,2.50
2019-02-12T07:05:07.353Z,2.50
2019-02-12T07:07:35.462Z,2.60
2019-02-12T07:09:56.662Z,2.70
2019-02-12T07:12:24.849Z,2.80
2019-02-12T07:14:53.058Z,2.80
2019-02-12T07:17:34.625Z,3.00
2019-02-12T07:20:17.405Z,2.90
2019-02-12T07:22:54.919Z,3.00
2019-02-12T07:25:35.186Z,3.00
2019-02-12T07:28:03.061Z,3.00
2019-02-12T07:30:37.685Z,3.00
2019-02-12T07:33:13.337Z,3.10
2019-02-12T07:36:02.767Z,3.10
2019-02-12T07:38:33.951Z,3.10
2019-02-12T07:41:07.781Z,3.10
2019-02-12T07:43:38.702Z,3.20
2019-02-12T07:46:23.769Z,3.20
2019-02-12T07:48:51.790Z,3.30
2019-02-12T07:51:16.788Z,3.40
2019-02-12T07:53:59.510Z,3.40
2019-02-12T07:56:42.549Z,3.40
2019-02-12T07:59:22.876Z,3.50
2019-02-12T08:02:09.292Z,3.60
2019-02-12T08:04:46.522Z,3.60
2019-02-12T08:07:17.828Z,3.70
2019-02-12T08:09:51.970Z,3.80
2019-02-12T08:12:16.973Z,3.80
2019-02-12T08:14:42.282Z,3.90
2019-02-12T08:17:10.487Z,3.90
2019-02-12T08:19:35.492Z,3.90
2019-02-12T08:22:17.506Z,3.90
2019-02-12T08:24:51.476Z,4.00
2019-02-12T08:27:16.477Z,4.00
2019-02-12T08:29:53.749Z,4.10
2019-02-12T08:32:35.817Z,4.10
2019-02-12T08:35:17.317Z,4.10
2019-02-12T08:37:48.278Z,4.20
2019-02-12T08:40:17.580Z,4.30
2019-02-12T08:42:54.662Z,4.30
2019-02-12T08:45:32.079Z,4.40
2019-02-12T08:48:06.194Z,4.50
2019-02-12T08:50:52.010Z,4.60
2019-02-12T08:53:28.617Z,4.80
2019-02-12T08:56:02.850Z,5.00
2019-02-12T08:58:33.570Z,5.20
2019-02-12T09:01:07.505Z,5.40
2019-02-12T09:03:47.498Z,5.40
2019-02-12T09:06:30.039Z,5.50
2019-02-12T09:09:01.290Z,5.60
2019-02-12T09:11:29.058Z,5.50
2019-02-12T09:13:56.635Z,5.50
2019-02-12T09:16:33.773Z,5.60
2019-02-12T09:19:16.635Z,5.60
2019-02-12T09:22:10.559Z,5.50
2019-02-12T09:24:56.723Z,5.50
2019-02-12T09:27:21.741Z,5.60
2019-02-12T09:29:55.566Z,5.60
2019-02-12T09:32:39.713Z,5.70
2019-02-12T09:35:19.292Z,5.70
2019-02-12T09:38:13.366Z,5.70
2019-02-12T09:40:47.316Z,5.70
2019-02-12T09:43:45.828Z,5.90
2019-02-12T09:46:22.867Z,6.00
2019-02-12T09:49:07.642Z,6.00
2019-02-12T09:51:35.393Z,5.90
2019-02-12T09:54:18.712Z,5.90
2019-02-12T09:56:55.966Z,5.90
2019-02-12T09:59:29.490Z,5.90
2019-02-12T10:02:12.543Z,6.10
2019-02-12T10:04:54.204Z,6.10
2019-02-12T10:07:22.026Z,6.20
2019-02-12T10:09:59.110Z,6.30
2019-02-12T10:12:26.832Z,6.40
2019-02-12T10:14:55.998Z,6.50
2019-02-12T10:17:21.273Z,6.50
2019-02-12T10:19:52.289Z,6.30
2019-02-12T10:22:32.422Z,6.30
2019-02-12T10:24:57.435Z,6.60
2019-02-12T10:27:28.257Z,6.80
2019-02-12T10:29:59.046Z,6.80
2019-02-12T10:32:20.036Z,7.00
2019-02-12T10:34:41.231Z,7.10
2019-02-12T10:37:02.446Z,7.40
2019-02-12T10:39:23.665Z,7.20
2019-02-12T10:41:44.868Z,7.40
2019-02-12T10:44:06.051Z,7.40
2019-02-12T10:46:27.367Z,7.50
2019-02-12T10:48:48.559Z,7.70
2019-02-12T10:51:09.775Z,7.90
2019-02-12T10:53:30.967Z,7.70
2019-02-12T10:55:52.157Z,7.90
2019-02-12T10:58:13.478Z,8.10
2019-02-12T11:00:34.755Z,8.10
2019-02-12T11:02:55.949Z,8.20
2019-02-12T11:05:17.141Z,7.90
2019-02-12T11:07:38.537Z,8.00
2019-02-12T11:09:59.834Z,8.20
2019-02-12T11:12:21.333Z,8.10
2019-02-12T11:14:42.538Z,8.10
2019-02-12T11:17:03.740Z,7.90
2019-02-12T11:19:24.937Z,7.70
2019-02-12T11:21:46.142Z,7.70
2019-02-12T11:24:07.337Z,7.70
2019-02-12T11:26:28.701Z,7.60
2019-02-12T11:28:49.961Z,7.40
2019-02-12T11:31:11.147Z,7.30
2019-02-12T11:36:50.821Z,7.30
2019-02-12T11:39:12.025Z,7.30
2019-02-12T11:41:33.251Z,7.50
2019-02-12T11:43:54.451Z,7.60
2019-02-12T11:46:15.666Z,7.70
2019-02-12T11:48:36.890Z,7.90
2019-02-12T11:50:58.093Z,7.80
2019-02-12T11:53:19.293Z,8.00
2019-02-12T11:55:41.153Z,8.10
2019-02-12T11:58:02.754Z,8.10
2019-02-12T12:00:25.970Z,8.10
2019-02-12T12:02:47.480Z,8.20
2019-02-12T12:05:08.675Z,8.40
2019-02-12T12:07:29.874Z,8.50
2019-02-12T12:09:51.335Z,8.90
2019-02-12T12:12:12.967Z,9.00
2019-02-12T12:14:34.162Z,9.10
2019-02-12T12:16:55.355Z,9.40
2019-02-12T12:19:16.600Z,9.50
2019-02-12T12:21:37.802Z,9.60
2019-02-12T12:23:59.300Z,9.80
2019-02-12T12:26:20.542Z,9.70
2019-02-12T12:28:43.328Z,9.60
2019-02-12T12:31:04.790Z,9.50
2019-02-12T12:33:26.048Z,9.60
2019-02-12T12:35:47.330Z,9.40
2019-02-12T12:38:08.521Z,9.40
2019-02-12T12:40:29.783Z,8.90
2019-02-12T12:42:50.969Z,8.70
2019-02-12T12:45:13.281Z,8.80
2019-02-12T12:47:34.495Z,8.90
2019-02-12T12:49:55.736Z,9.00
2019-02-12T12:52:16.929Z,8.90
2019-02-12T12:54:38.126Z,8.90
2019-02-12T12:56:59.374Z,8.90
2019-02-12T12:59:20.794Z,8.80
2019-02-12T13:01:42.101Z,8.70
2019-02-12T13:04:03.298Z,8.60
2019-02-12T13:06:24.516Z,8.60
2019-02-12T13:08:45.730Z,8.80
2019-02-12T13:11:06.937Z,8.80
2019-02-12T13:13:28.119Z,8.80
2019-02-12T13:15:49.330Z,8.80
2019-02-12T13:18:10.544Z,8.50
2019-02-12T13:20:31.744Z,8.50
2019-02-12T13:22:53.307Z,8.60
2019-02-12T13:25:14.546Z,8.70
2019-02-12T13:27:35.845Z,8.80
2019-02-12T13:29:57.195Z,8.70
2019-02-12T13:32:18.423Z,8.60
2019-02-12T13:34:39.644Z,8.50
2019-02-12T13:37:00.864Z,8.60
2019-02-12T13:39:22.082Z,8.40
2019-02-12T13:41:43.286Z,8.20
2019-02-12T13:44:04.501Z,8.30
2019-02-12T13:46:25.702Z,8.30
2019-02-12T13:49:00.537Z,8.30
2019-02-12T13:51:21.744Z,8.30
2019-02-12T13:53:42.955Z,8.30
2019-02-12T13:56:04.292Z,8.40
2019-02-12T13:58:25.888Z,8.10
2019-02-12T14:00:47.202Z,8.10
2019-02-12T14:03:08.429Z,8.10
2019-02-12T14:05:29.644Z,8.10
2019-02-12T14:07:50.888Z,8.10
2019-02-12T14:10:12.151Z,8.00
2019-02-12T14:12:33.350Z,8.00
2019-02-12T14:14:54.646Z,8.30
2019-02-12T14:17:15.854Z,8.10
2019-02-12T14:19:37.089Z,8.20
2019-02-12T14:21:58.306Z,8.30
2019-02-12T14:24:19.503Z,8.10
2019-02-12T14:26:40.747Z,8.10
2019-02-12T14:29:02.035Z,8.00
2019-02-12T14:31:23.342Z,8.10
2019-02-12T14:33:44.570Z,8.10
2019-02-12T14:36:05.785Z,8.10
2019-02-12T14:38:26.994Z,8.00
2019-02-12T14:40:48.223Z,7.90
2019-02-12T14:43:14.118Z,8.00
2019-02-12T14:45:32.858Z,8.10
2019-02-12T14:47:54.453Z,8.10
2019-02-12T14:50:37.429Z,8.00
2019-02-12T14:52:58.686Z,7.90
2019-02-12T14:55:19.894Z,8.00
2019-02-12T14:57:41.086Z,7.80
2019-02-12T15:00:05.503Z,7.70
2019-02-12T15:02:28.640Z,7.60
2019-02-12T15:04:49.860Z,7.50
2019-02-12T15:07:11.054Z,7.40
2019-02-12T15:09:33.860Z,7.50
2019-02-12T15:11:55.054Z,7.40
2019-02-12T15:14:16.693Z,7.30
2019-02-12T15:16:37.883Z,7.40
2019-02-12T15:18:59.077Z,7.40
2019-02-12T15:21:20.286Z,7.40
2019-02-12T15:23:41.489Z,7.40
2019-02-12T15:26:02.706Z,7.40
2019-02-12T15:28:23.887Z,7.30
2019-02-12T15:30:45.209Z,7.30
2019-02-12T15:33:06.431Z,7.20
2019-02-12T15:35:28.193Z,7.10
2019-02-12T15:37:49.576Z,7.10
2019-02-12T15:40:16.543Z,7.00
2019-02-12T15:42:37.756Z,7.00
2019-02-12T15:44:58.947Z,6.90
2019-02-12T15:47:20.158Z,6.90
2019-02-12T15:49:41.357Z,6.90
2019-02-12T15:52:02.923Z,6.80
2019-02-12T15:54:24.121Z,6.80
2019-02-12T15:56:45.317Z,6.80
2019-02-12T15:59:06.667Z,6.80
2019-02-12T16:01:28.288Z,6.80
2019-02-12T16:03:49.678Z,6.90
2019-02-12T16:06:10.898Z,6.90
2019-02-12T16:08:32.483Z,6.90
2019-02-12T16:10:55.168Z,6.90
2019-02-12T16:13:17.142Z,6.90
2019-02-12T16:15:38.349Z,6.80
2019-02-12T16:18:00.211Z,6.80
2019-02-12T16:20:22.654Z,6.80
2019-02-12T16:22:43.848Z,6.70
2019-02-12T16:25:08.298Z,6.60
2019-02-12T16:27:29.570Z,6.60
2019-02-12T16:29:51.084Z,6.60
2019-02-12T16:32:12.426Z,6.50
2019-02-12T16:34:34.545Z,6.40
2019-02-12T16:36:55.748Z,6.40
2019-02-12T16:39:17.071Z,6.30
2019-02-12T16:41:38.579Z,6.30
2019-02-12T16:44:01.706Z,6.30
2019-02-12T16:46:23.400Z,6.20
2019-02-12T16:48:45.878Z,6.20
2019-02-12T16:51:07.082Z,6.10
2019-02-12T16:53:28.526Z,6.10
2019-02-12T16:55:49.801Z,6.00
2019-02-12T16:58:11.286Z,6.00
2019-02-12T17:00:32.938Z,6.00
2019-02-12T17:02:54.774Z,5.90
2019-02-12T17:05:16.093Z,5.90
2019-02-12T17:07:37.478Z,5.80
2019-02-12T17:09:58.801Z,5.90
2019-02-12T17:12:20.099Z,5.80
2019-02-12T17:14:41.776Z,5.80
2019-02-12T17:17:03.124Z,5.80
2019-02-12T17:19:24.459Z,5.80
2019-02-12T17:21:46.002Z,5.70
2019-02-12T17:24:08.877Z,5.70
2019-02-12T17:26:30.283Z,5.60
2019-02-12T17:28:52.135Z,5.70
2019-02-12T17:31:13.506Z,5.60
2019-02-12T17:33:34.726Z,5.50
2019-02-12T17:35:56.251Z,5.60
2019-02-12T17:38:17.779Z,5.50
2019-02-12T17:40:39.055Z,5.50
2019-02-12T17:43:00.255Z,5.50
2019-02-12T17:45:21.502Z,5.50
2019-02-12T17:47:42.998Z,5.40
2019-02-12T17:50:07.283Z,5.40
2019-02-12T17:52:28.478Z,5.40
2019-02-12T17:54:49.675Z,5.40
2019-02-12T17:57:10.917Z,5.40
2019-02-12T17:59:32.136Z,5.30
2019-02-12T18:01:53.374Z,5.30
2019-02-12T18:04:14.573Z,5.30
2019-02-12T18:06:36.039Z,5.30
2019-02-12T18:08:57.249Z,5.20
2019-02-12T18:11:18.536Z,5.20
2019-02-12T18:13:39.742Z,5.30
2019-02-12T18:16:01.238Z,5.20
2019-02-12T18:18:22.459Z,5.20
2019-02-12T18:20:43.647Z,5.10
2019-02-12T18:23:04.853Z,5.10
2019-02-12T18:25:26.045Z,5.20
2019-02-12T18:27:47.243Z,5.10
2019-02-12T18:30:27.609Z,5.10
2019-02-12T18:32:48.901Z,5.20
2019-02-12T18:35:10.539Z,5.20
2019-02-12T18:37:32.103Z,5.10
2019-02-12T18:39:53.396Z,5.10
2019-02-12T18:42:14.797Z,5.00
2019-02-12T18:44:36.146Z,5.00
2019-02-12T18:46:57.351Z,4.90
2019-02-12T18:49:18.552Z,4.80
2019-02-12T18:51:39.769Z,4.70
2019-02-12T18:54:00.970Z,4.70
2019-02-12T18:56:22.315Z,4.60
2019-02-12T18:58:44.806Z,4.50
2019-02-12T19:01:06.019Z,4.50
2019-02-12T19:03:27.291Z,4.50
2019-02-12T19:05:48.545Z,4.50
2019-02-12T19:08:09.755Z,4.50
2019-02-12T19:10:30.952Z,4.50
2019-02-12T19:12:52.154Z,4.40
2019-02-12T19:15:15.665Z,4.30
2019-02-12T19:17:36.883Z,4.30
2019-02-12T19:19:58.078Z,4.20
2019-02-12T19:22:19.306Z,4.10
2019-02-12T19:24:40.826Z,4.10
2019-02-12T19:27:02.207Z,4.00
2019-02-12T19:29:23.419Z,3.90
2019-02-12T19:31:44.615Z,3.90
2019-02-12T19:34:05.944Z,3.90
2019-02-12T19:36:27.138Z,3.90
2019-02-12T19:38:48.406Z,3.80
2019-02-12T19:41:09.617Z,3.80
2019-02-12T19:43:30.828Z,3.80
2019-02-12T19:45:52.335Z,3.80
2019-02-12T19:48:13.521Z,3.70
2019-02-12T19:50:34.717Z,3.70
2019-02-12T19:52:55.946Z,3.50
2019-02-12T19:55:17.153Z,3.50
2019-02-12T19:57:38.351Z,3.40
2019-02-12T19:59:59.570Z,3.40
2019-02-12T20:02:20.782Z,3.40
2019-02-12T20:04:42.191Z,3.30
2019-02-12T20:07:03.510Z,3.30
2019-02-12T20:09:24.739Z,3.20
2019-02-12T20:11:45.964Z,3.10
2019-02-12T20:14:07.238Z,3.00
2019-02-12T20:16:28.809Z,3.10
2019-02-12T20:18:50.277Z,3.00
2019-02-12T20:21:11.664Z,3.00
2019-02-12T20:23:32.971Z,3.00
2019-02-12T20:25:55.298Z,2.90
2019-02-12T20:28:16.604Z,2.80
2019-02-12T20:30:37.897Z,2.80
2019-02-12T20:32:59.205Z,2.80
2019-02-12T20:35:21.673Z,2.70
2019-02-12T20:37:42.911Z,2.60
2019-02-12T20:40:07.218Z,2.60
2019-02-12T20:42:32.638Z,2.50
2019-02-12T20:44:54.384Z,2.60
2019-02-12T20:47:15.600Z,2.50
2019-02-12T20:49:36.980Z,2.50
2019-02-12T20:51:58.284Z,2.50
2019-02-12T20:54:19.503Z,2.40
2019-02-12T20:56:40.898Z,2.40
2019-02-12T20:59:02.227Z,2.30
2019-02-12T21:01:23.994Z,2.30
2019-02-12T21:03:45.350Z,2.30
2019-02-12T21:06:06.743Z,2.40
2019-02-12T21:08:28.611Z,2.40
2019-02-12T21:10:50.005Z,2.40
2019-02-12T21:13:11.237Z,2.40
2019-02-12T21:15:32.463Z,2.30
2019-02-12T21:17:53.761Z,2.20
2019-02-12T21:20:15.023Z,2.10
2019-02-12T21:22:36.316Z,2.10
2019-02-12T21:24:57.719Z,2.10
2019-02-12T21:27:23.480Z,2.10
2019-02-12T21:29:42.047Z,2.10
2019-02-12T21:32:03.634Z,2.10
2019-02-12T21:34:24.981Z,2.10
2019-02-12T21:36:46.729Z,2.00
2019-02-12T21:39:09.583Z,1.80
2019-02-12T21:41:30.813Z,1.80
2019-02-12T21:43:52.282Z,1.80
2019-02-12T21:46:14.673Z,1.80
2019-02-12T21:48:36.081Z,1.80
2019-02-12T21:50:57.657Z,1.70
2019-02-12T21:53:18.866Z,1.70
2019-02-12T21:55:42.033Z,1.70
2019-02-12T21:58:03.340Z,1.70
2019-02-12T22:00:24.672Z,1.70
2019-02-12T22:02:45.964Z,1.70
2019-02-12T22:05:10.191Z,1.70
2019-02-12T22:07:31.485Z,1.60
2019-02-12T22:09:52.698Z,1.70
2019-02-12T22:12:14.010Z,1.70
2019-02-12T22:14:35.207Z,1.70
2019-02-12T22:16:56.428Z,1.80
2019-02-12T22:19:19.188Z,1.80
2019-02-12T22:21:40.494Z,1.80
2019-02-12T22:24:01.700Z,1.80
2019-02-12T22:26:22.910Z,1.60
2019-02-12T22:28:44.214Z,1.60
2019-02-12T22:31:05.415Z,1.50
2019-02-12T22:33:26.625Z,1.50
2019-02-12T22:35:47.963Z,1.40
2019-02-12T22:38:09.432Z,1.40
2019-02-12T22:40:30.647Z,1.50
2019-02-12T22:42:51.863Z,1.40
2019-02-12T22:45:19.064Z,1.40
2019-02-12T22:47:40.273Z,1.50
2019-02-12T22:50:04.117Z,1.50
2019-02-12T22:52:25.514Z,1.50
2019-02-12T22:54:46.762Z,1.50
2019-02-12T22:57:07.965Z,1.40
2019-02-12T22:59:29.282Z,1.30
2019-02-12T23:01:50.796Z,1.20
2019-02-12T23:04:12.046Z,1.10
2019-02-12T23:06:33.451Z,1.00
2019-02-12T23:08:54.805Z,1.00
2019-02-12T23:11:16.027Z,1.00
2019-02-12T23:13:37.367Z,1.00
2019-02-12T23:15:58.800Z,0.80
2019-02-12T23:18:20.104Z,0.70
2019-02-12T23:20:41.313Z,0.70
2019-02-12T23:23:02.564Z,0.60
2019-02-12T23:25:23.841Z,0.70
2019-02-12T23:27:46.147Z,0.70
2019-02-12T23:30:08.834Z,0.60
2019-02-12T23:32:30.093Z,0.50
2019-02-12T23:34:57.018Z,0.50
2019-02-12T23:37:14.713Z,0.50
2019-02-12T23:39:36.080Z,0.50
2019-02-12T23:41:57.277Z,0.50
2019-02-12T23:44:18.851Z,0.50
2019-02-12T23:46:40.244Z,0.40
2019-02-12T23:49:01.462Z,0.40
2019-02-12T23:51:22.920Z,0.40
2019-02-12T23:53:45.499Z,0.30
2019-02-12T23:56:06.694Z,0.40
2019-02-12T23:58:27.950Z,0.40
